Time;durP1;ratioP1;P1;durP2;ratioP2;P2;SDS_P1;SDS_P2;PMS_P1;PMS_P2;Temp;Humidity;BMP_temperature;BMP_pressure;BME280_temperature;BME280_humidity;BME280_pressure;Samples;Min_cycle;Max_cycle;Signal;HPM_P1;HPM_P2
2023/05/21 00:00:32;;;;;;;;;14.50;13.50;;;;;18.92;53.29;101027.22;2073870;28;45636;-64
2023/05/21 00:01:32;;;;;;;;;13.50;12.00;;;;;18.91;53.36;101025.47;2079458;28;45538;-65
2023/05/21 00:02:33;;;;;;;;;14.00;14.00;;;;;18.91;53.19;101028.16;2076593;28;46536;-63
2023/05/21 00:03:34;;;;;;;;;12.75;12.50;;;;;18.91;53.17;101030.84;2076561;28;45982;-63
2023/05/21 00:04:35;;;;;;;;;12.20;12.00;;;;;18.91;52.88;101030.84;2079784;28;45187;-64
2023/05/21 00:05:36;;;;;;;;;13.50;13.50;;;;;18.90;53.16;101029.97;2077303;28;47476;-65
2023/05/21 00:06:36;;;;;;;;;14.60;14.60;;;;;18.89;53.35;101025.56;2078513;28;46852;-64
2023/05/21 00:07:37;;;;;;;;;13.00;11.75;;;;;18.88;53.42;101031.00;2078498;28;45624;-64
2023/05/21 00:08:37;;;;;;;;;19.00;16.25;;;;;18.87;53.14;101030.13;2077371;28;46311;-63
2023/05/21 00:09:38;;;;;;;;;16.50;16.50;;;;;18.86;53.35;101020.34;2079654;28;46687;-64
2023/05/21 00:10:38;;;;;;;;;14.25;14.25;;;;;18.86;53.27;101030.22;2074951;28;46522;-63
2023/05/21 00:11:38;;;;;;;;;14.75;14.75;;;;;18.83;53.52;101028.56;2066580;28;46750;-64
2023/05/21 00:12:40;;;;;;;;;14.50;14.50;;;;;18.83;53.20;101030.38;2078459;28;46902;-63
2023/05/21 00:13:40;;;;;;;;;17.40;15.80;;;;;18.82;53.07;101032.22;2075152;28;46180;-65
2023/05/21 00:14:41;;;;;;;;;14.75;14.00;;;;;18.81;53.28;101031.34;2077529;28;46560;-64
2023/05/21 00:15:41;;;;;;;;;15.75;12.75;;;;;18.81;53.67;101034.03;2076738;28;45478;-64
2023/05/21 00:16:43;;;;;;;;;15.50;15.00;;;;;18.80;53.44;101026.91;2070335;28;45540;-65
2023/05/21 00:17:44;;;;;;;;;13.80;12.80;;;;;18.81;53.45;101031.34;2071553;28;45221;-64
2023/05/21 00:18:46;;;;;;;;;15.60;14.60;;;;;18.79;53.72;101022.44;2071105;28;46093;-62
2023/05/21 00:19:46;;;;;;;;;15.40;15.20;;;;;18.79;53.72;101025.16;2072350;28;46239;-63
2023/05/21 00:20:47;;;;;;;;;16.50;15.25;;;;;18.80;53.46;101020.63;2080627;28;45880;-65
2023/05/21 00:21:47;;;;;;;;;17.00;16.50;;;;;18.79;53.69;101019.75;2077330;28;45813;-64
2023/05/21 00:22:47;;;;;;;;;15.25;14.75;;;;;18.79;53.55;101014.38;2079887;28;45947;-63
2023/05/21 00:23:53;;;;;;;;;15.50;15.50;;;;;18.78;53.87;101015.34;2077966;28;45441;-64
2023/05/21 00:24:53;;;;;;;;;16.00;16.00;;;;;18.78;53.90;101012.66;2076499;28;44935;-65
2023/05/21 00:25:53;;;;;;;;;13.75;13.75;;;;;18.77;54.14;101013.59;2073214;28;45292;-64
2023/05/21 00:26:54;;;;;;;;;13.00;13.00;;;;;18.78;53.73;101017.16;2076592;28;46839;-64
2023/05/21 00:27:55;;;;;;;;;12.00;12.00;;;;;18.75;53.55;101015.50;2078343;28;45869;-65
2023/05/21 00:28:56;;;;;;;;;16.20;15.00;;;;;18.76;53.94;101021.75;2080188;28;45352;-63
2023/05/21 00:29:56;;;;;;;;;15.25;14.50;;;;;18.75;54.28;101018.19;2077370;28;45695;-62
2023/05/21 00:30:57;;;;;;;;;5.00;3.50;;;;;18.74;54.02;101023.66;2079702;28;45781;-65
2023/05/21 00:31:57;;;;;;;;;15.25;15.25;;;;;18.74;53.84;101024.53;2074140;28;45940;-64
2023/05/21 00:33:01;;;;;;;;;16.50;16.50;;;;;18.73;53.98;101019.22;2072756;28;46208;-64
2023/05/21 00:34:01;;;;;;;;;19.40;18.00;;;;;18.73;53.79;101021.91;2073286;28;45737;-63
2023/05/21 00:35:01;;;;;;;;;15.75;15.75;;;;;18.71;54.06;101022.00;2076475;28;44980;-63
2023/05/21 00:36:02;;;;;;;;;16.00;15.25;;;;;18.71;54.29;101023.81;2066541;28;45433;-64
2023/05/21 00:37:03;;;;;;;;;16.75;15.75;;;;;18.69;54.25;101021.19;2063559;28;45603;-64
2023/05/21 00:38:03;;;;;;;;;15.25;14.75;;;;;18.68;54.09;101018.59;2074888;28;46132;-63
2023/05/21 00:39:04;;;;;;;;;17.00;15.25;;;;;18.66;54.34;101021.34;2078880;28;45659;-65
2023/05/21 00:40:16;;;;;;;;;14.60;14.60;;;;;18.64;54.10;101011.63;2072820;28;46931;-65
2023/05/21 00:41:17;;;;;;;;;14.40;13.80;;;;;18.62;54.23;101013.47;2075324;28;45997;-64
2023/05/21 00:42:20;;;;;;;;;11.60;11.60;;;;;18.58;54.09;101010.09;2080888;28;47446;-66
2023/05/21 00:43:27;;;;;;;;;12.25;12.25;;;;;18.57;54.37;101010.16;2079844;28;47786;-65
2023/05/21 00:44:33;;;;;;;;;13.60;13.60;;;;;18.56;54.25;101003.06;2080454;28;45243;-65
2023/05/21 00:45:35;;;;;;;;;16.40;15.80;;;;;18.55;54.37;101007.56;2075679;28;45964;-62
2023/05/21 00:46:36;;;;;;;;;14.40;13.80;;;;;18.55;54.56;101007.56;2078553;28;45639;-66
2023/05/21 00:47:37;;;;;;;;;16.25;16.25;;;;;18.53;54.65;101007.59;2079898;28;47693;-64
2023/05/21 00:48:38;;;;;;;;;17.40;16.80;;;;;18.54;54.55;101003.09;2080613;28;46205;-64
2023/05/21 00:49:39;;;;;;;;;13.00;13.00;;;;;18.54;54.55;101000.41;2080452;28;46382;-64
2023/05/21 00:50:40;;;;;;;;;13.75;13.75;;;;;18.54;54.65;101000.41;2074245;28;45631;-63
2023/05/21 00:51:40;;;;;;;;;16.40;15.60;;;;;18.54;54.44;100995.91;2080794;28;46405;-64
2023/05/21 00:52:42;;;;;;;;;18.25;17.00;;;;;18.55;54.54;100996.81;2075844;28;46609;-63
2023/05/21 00:53:44;;;;;;;;;14.00;14.00;;;;;18.56;54.40;100997.69;2081517;28;45646;-64
2023/05/21 00:54:49;;;;;;;;;13.80;11.00;;;;;18.56;54.66;100993.16;2080998;28;45693;-63
2023/05/21 00:55:50;;;;;;;;;13.20;13.20;;;;;18.56;54.58;100998.53;2078788;28;45934;-64
2023/05/21 00:56:54;;;;;;;;;14.50;14.50;;;;;18.54;54.80;100993.22;2072728;28;46614;-67
2023/05/21 00:57:55;;;;;;;;;13.60;12.60;;;;;18.54;54.61;100995.91;2072630;28;46907;-62
2023/05/21 00:58:56;;;;;;;;;18.50;17.00;;;;;18.54;54.62;100995.91;2073464;28;45088;-63
2023/05/21 00:59:56;;;;;;;;;13.00;13.00;;;;;18.54;54.65;100993.22;2072198;28;46341;-64
2023/05/21 01:00:57;;;;;;;;;16.00;16.00;;;;;18.54;54.79;100989.66;2073118;28;46352;-62
2023/05/21 01:02:03;;;;;;;;;17.00;15.75;;;;;18.54;54.75;100995.03;2073097;28;46092;-63
2023/05/21 01:03:04;;;;;;;;;17.00;16.20;;;;;18.56;54.81;100997.69;2072187;28;46869;-62
2023/05/21 01:04:05;;;;;;;;;19.00;16.80;;;;;18.55;54.87;100996.81;2072102;28;46296;-63
2023/05/21 01:05:05;;;;;;;;;17.25;17.25;;;;;18.55;54.34;100991.44;2073007;28;45108;-65
2023/05/21 01:06:07;;;;;;;;;15.50;15.25;;;;;18.52;54.84;100994.25;2073754;28;46622;-65
2023/05/21 01:07:08;;;;;;;;;14.60;14.60;;;;;18.49;55.05;100991.72;2073606;28;45607;-64
2023/05/21 01:08:09;;;;;;;;;18.00;17.25;;;;;18.48;54.96;100985.47;2072944;28;46327;-63
2023/05/21 01:09:09;;;;;;;;;17.50;17.00;;;;;18.46;54.32;100979.31;2073905;28;45498;-64
2023/05/21 01:10:10;;;;;;;;;15.25;14.75;;;;;18.45;54.89;100985.63;2073033;28;45830;-64
2023/05/21 01:11:11;;;;;;;;;16.00;16.00;;;;;18.44;55.16;100983.91;2068279;28;46108;-63
2023/05/21 01:12:12;;;;;;;;;18.50;17.75;;;;;18.45;54.80;100990.16;2072754;28;46386;-64
2023/05/21 01:13:15;;;;;;;;;17.40;14.40;;;;;18.43;54.75;100992.91;2072912;28;45559;-64
2023/05/21 01:14:17;;;;;;;;;17.60;15.20;;;;;18.44;54.99;100988.41;2069344;28;45855;-64
2023/05/21 01:15:18;;;;;;;;;14.20;14.20;;;;;18.42;55.26;100979.53;2071795;28;46351;-63
2023/05/21 01:16:18;;;;;;;;;16.75;15.75;;;;;18.42;54.75;100985.81;2067736;28;45744;-64
2023/05/21 01:17:23;;;;;;;;;15.50;15.00;;;;;18.40;55.04;100987.66;2072509;28;46842;-64
2023/05/21 01:18:23;;;;;;;;;19.40;19.40;;;;;18.38;54.91;100986.00;2072073;28;45782;-65
2023/05/21 01:19:24;;;;;;;;;17.50;17.50;;;;;18.36;55.20;100993.28;2072056;28;45782;-64
2023/05/21 01:20:25;;;;;;;;;16.75;16.25;;;;;18.35;55.35;100992.41;2072673;28;45790;-65
2023/05/21 01:21:29;;;;;;;;;16.80;15.60;;;;;18.33;55.56;100997.00;2072995;28;45847;-64
2023/05/21 01:22:31;;;;;;;;;15.80;15.80;;;;;18.30;55.47;100991.78;2072539;28;45750;-63
2023/05/21 01:23:32;;;;;;;;;14.40;14.40;;;;;18.29;55.56;100992.69;2072563;28;46446;-63
2023/05/21 01:24:34;;;;;;;;;16.40;16.40;;;;;18.27;55.38;100989.22;2072944;28;45749;-63
2023/05/21 01:25:34;;;;;;;;;16.40;16.40;;;;;18.25;55.42;100991.13;2072210;28;47197;-65
2023/05/21 01:26:37;;;;;;;;;11.00;8.75;;;;;18.24;55.66;100989.38;2072351;28;48019;-65
2023/05/21 01:27:37;;;;;;;;;19.60;18.00;;;;;18.24;55.69;100994.75;2072321;28;47224;-63
2023/05/21 01:28:38;;;;;;;;;16.75;15.75;;;;;18.24;55.82;101000.13;2072424;28;46683;-64
2023/05/21 01:29:38;;;;;;;;;16.25;15.75;;;;;18.24;55.48;100995.63;2073063;28;45516;-63
2023/05/21 01:30:40;;;;;;;;;17.25;16.50;;;;;18.24;55.72;100992.06;2072114;28;46691;-64
2023/05/21 01:32:08;;;;;;;;;17.60;17.00;;;;;18.25;55.55;101004.56;2072293;28;46146;-64
2023/05/21 01:33:18;;;;;;;;;18.20;16.40;;;;;18.24;55.64;101002.81;2071853;28;48539;-64
2023/05/21 01:34:25;;;;;;;;;12.40;12.40;;;;;18.23;55.65;101007.31;2072064;28;46802;-63
2023/05/21 01:35:31;;;;;;;;;16.60;16.40;;;;;18.23;55.71;101001.94;2072313;28;45847;-64
2023/05/21 01:36:41;;;;;;;;;19.60;18.00;;;;;18.22;55.81;101008.25;2072166;28;45289;-62
2023/05/21 01:37:47;;;;;;;;;17.00;16.00;;;;;18.23;55.85;101001.94;2072122;28;46925;-65
2023/05/21 01:38:56;;;;;;;;;16.80;16.60;;;;;18.23;55.78;101001.94;2072220;28;45935;-63
2023/05/21 01:40:04;;;;;;;;;19.80;19.80;;;;;18.22;55.71;100992.16;2071800;28;46371;-64
2023/05/21 01:41:12;;;;;;;;;15.60;14.00;;;;;18.22;55.80;100992.16;2071798;28;46044;-63
2023/05/21 01:42:15;;;;;;;;;14.20;14.20;;;;;18.22;55.97;100993.97;2072240;28;45681;-64
2023/05/21 01:43:17;;;;;;;;;17.20;17.20;;;;;18.22;55.89;100992.16;2072462;28;45576;-64
2023/05/21 01:44:18;;;;;;;;;19.00;18.40;;;;;18.24;55.79;100995.63;2072381;28;45953;-63
2023/05/21 01:45:21;;;;;;;;;18.00;18.00;;;;;18.22;55.93;100997.53;2072407;28;46797;-64
2023/05/21 01:46:27;;;;;;;;;17.40;17.40;;;;;18.22;55.90;100993.97;2073350;28;45945;-64
2023/05/21 01:47:30;;;;;;;;;18.20;17.40;;;;;18.22;55.81;100992.16;2071814;28;46999;-64
2023/05/21 01:48:31;;;;;;;;;18.20;16.40;;;;;18.21;55.95;100993.09;2072497;28;45772;-63
2023/05/21 01:49:32;;;;;;;;;18.25;17.00;;;;;18.21;55.98;100989.53;2072375;28;45626;-63
2023/05/21 01:50:34;;;;;;;;;18.25;18.25;;;;;18.21;55.79;100986.84;2071785;28;46156;-64
2023/05/21 01:51:35;;;;;;;;;16.20;16.20;;;;;18.18;56.05;100990.56;2072748;28;45951;-64
2023/05/21 01:52:35;;;;;;;;;16.00;16.00;;;;;18.17;55.84;100993.34;2072417;28;46172;-63
2023/05/21 01:53:37;;;;;;;;;20.00;19.00;;;;;18.16;56.01;100991.56;2072073;28;46082;-61
2023/05/21 01:54:38;;;;;;;;;22.60;20.00;;;;;18.14;56.04;100985.41;2080766;28;46216;-64
2023/05/21 01:55:40;;;;;;;;;16.25;16.25;;;;;18.13;55.99;100981.84;2079948;28;45941;-62
2023/05/21 01:56:41;;;;;;;;;19.20;18.60;;;;;18.12;56.00;100990.84;2080333;28;46673;-65
2023/05/21 01:57:41;;;;;;;;;16.50;15.25;;;;;18.12;56.08;100984.59;2080413;28;45950;-63
2023/05/21 01:58:42;;;;;;;;;18.00;18.00;;;;;18.11;56.28;100991.78;2079896;28;47332;-65
2023/05/21 01:59:43;;;;;;;;;21.40;19.80;;;;;18.11;56.20;100988.25;2080823;28;46704;-63
2023/05/21 02:00:44;;;;;;;;;20.50;20.50;;;;;18.11;56.38;100988.25;2080704;28;45538;-64
2023/05/21 02:01:44;;;;;;;;;18.20;17.20;;;;;18.11;56.20;100988.25;2079804;28;45989;-64
2023/05/21 02:02:45;;;;;;;;;17.25;16.25;;;;;18.11;56.51;100989.09;2080704;28;46095;-65
2023/05/21 02:03:45;;;;;;;;;21.00;21.00;;;;;18.11;56.18;100986.44;2079764;28;45609;-63
2023/05/21 02:04:46;;;;;;;;;21.25;19.75;;;;;18.12;56.42;100992.66;2080137;28;45417;-66
2023/05/21 02:05:46;;;;;;;;;19.60;16.00;;;;;18.11;56.03;100991.78;2080549;28;46260;-64
2023/05/21 02:06:47;;;;;;;;;15.50;15.50;;;;;18.10;56.38;100990.06;2079889;28;45902;-64
2023/05/21 02:07:51;;;;;;;;;21.25;18.50;;;;;18.10;56.33;100986.50;2080494;28;47006;-65
2023/05/21 02:08:51;;;;;;;;;20.40;19.20;;;;;18.10;56.47;100997.25;2079692;28;46612;-63
2023/05/21 02:09:52;;;;;;;;;17.00;16.00;;;;;18.10;56.56;100989.19;2078594;28;46183;-63
2023/05/21 02:10:52;;;;;;;;;20.50;19.75;;;;;18.09;56.36;100993.69;2075542;28;46829;-64
2023/05/21 02:11:52;;;;;;;;;20.50;19.75;;;;;18.09;56.38;100991.00;2071936;28;45901;-63
2023/05/21 02:12:53;;;;;;;;;22.50;19.25;;;;;18.09;56.45;100991.00;2079908;28;45837;-64
2023/05/21 02:13:53;;;;;;;;;18.25;18.25;;;;;18.08;56.17;100991.94;2075152;28;46222;-64
2023/05/21 02:14:55;;;;;;;;;18.25;17.00;;;;;18.08;56.31;100991.94;2076049;28;45150;-63
2023/05/21 02:15:55;;;;;;;;;16.40;14.80;;;;;18.08;56.22;100993.78;2078867;28;45699;-64
2023/05/21 02:16:56;;;;;;;;;17.50;17.25;;;;;18.08;56.42;100994.63;2074763;28;45240;-63
2023/05/21 02:17:57;;;;;;;;;20.20;20.20;;;;;18.06;56.44;100991.16;2077965;28;46925;-62
2023/05/21 02:18:59;;;;;;;;;19.25;18.75;;;;;18.05;56.71;100988.56;2071939;28;45414;-64
2023/05/21 02:20:10;;;;;;;;;20.80;19.60;;;;;18.04;56.22;100989.47;2071872;28;46577;-63
2023/05/21 02:21:10;;;;;;;;;20.00;19.60;;;;;18.03;56.82;100990.41;2071961;28;46474;-62
2023/05/21 02:22:11;;;;;;;;;17.50;16.25;;;;;18.04;56.57;100992.16;2076100;28;46219;-61
2023/05/21 02:23:11;;;;;;;;;20.00;20.00;;;;;18.02;56.63;100986.84;2074145;28;46206;-64
2023/05/21 02:24:12;;;;;;;;;19.00;19.00;;;;;18.03;56.74;100982.34;2078256;28;45954;-62
2023/05/21 02:25:15;;;;;;;;;22.40;22.20;;;;;18.04;56.67;100994.84;2074062;28;45232;-60
2023/05/21 02:26:16;;;;;;;;;25.00;20.40;;;;;18.04;56.59;100994.84;2075809;28;45160;-64
2023/05/21 02:27:16;;;;;;;;;18.00;17.00;;;;;18.05;56.53;100996.63;2070102;28;45677;-65
2023/05/21 02:28:17;;;;;;;;;18.75;18.75;;;;;18.04;56.72;100995.75;2064958;28;46110;-63
2023/05/21 02:29:18;;;;;;;;;19.50;17.25;;;;;18.04;56.42;100993.06;2077319;28;45506;-64
2023/05/21 02:30:18;;;;;;;;;19.50;19.25;;;;;18.04;56.69;100993.06;2072456;28;45519;-63
2023/05/21 02:31:19;;;;;;;;;23.00;22.50;;;;;18.03;56.42;100996.66;2072430;28;45810;-63
2023/05/21 02:32:19;;;;;;;;;20.00;20.00;;;;;18.04;56.59;101002.91;2078228;28;45599;-63
2023/05/21 02:33:20;;;;;;;;;19.50;17.00;;;;;18.04;56.73;100997.53;2074282;28;45432;-63
2023/05/21 02:34:20;;;;;;;;;18.20;18.20;;;;;18.04;56.64;100997.53;2074335;28;45587;-64
2023/05/21 02:35:21;;;;;;;;;20.25;19.00;;;;;18.02;56.55;100986.84;2077856;28;45551;-64
2023/05/21 02:36:24;;;;;;;;;21.50;21.50;;;;;18.02;56.83;100994.03;2072876;28;45941;-61
2023/05/21 02:37:26;;;;;;;;;20.80;18.80;;;;;18.01;56.77;100992.31;2069378;28;45701;-65
2023/05/21 02:38:26;;;;;;;;;19.80;17.20;;;;;18.01;56.79;100993.19;2076313;28;46129;-63
2023/05/21 02:39:27;;;;;;;;;21.50;21.00;;;;;18.00;56.60;100996.81;2075075;28;46291;-64
2023/05/21 02:40:27;;;;;;;;;19.00;18.50;;;;;17.98;56.56;100998.69;2072320;28;46398;-63
2023/05/21 02:41:27;;;;;;;;;22.50;21.00;;;;;17.97;56.71;100998.78;2075080;28;45927;-62
2023/05/21 02:42:27;;;;;;;;;23.50;21.25;;;;;17.95;56.79;100998.84;2079568;28;46491;-63
2023/05/21 02:43:28;;;;;;;;;20.75;19.75;;;;;17.94;56.96;100998.00;2079490;28;44952;-66
2023/05/21 02:44:28;;;;;;;;;21.25;18.25;;;;;17.93;56.91;100995.38;2078481;28;45966;-63
2023/05/21 02:45:28;;;;;;;;;21.50;21.50;;;;;17.93;56.75;100998.06;2071529;28;45700;-63
2023/05/21 02:46:29;;;;;;;;;21.75;21.75;;;;;17.92;57.11;100990.97;2075724;28;44948;-63
2023/05/21 02:47:29;;;;;;;;;20.00;20.00;;;;;17.91;56.92;100992.78;2079884;28;45845;-64
2023/05/21 02:48:29;;;;;;;;;21.00;20.50;;;;;17.91;56.84;100998.16;2079416;28;46529;-62
2023/05/21 02:49:30;;;;;;;;;19.50;17.50;;;;;17.91;56.96;100992.78;2074538;28;47827;-63
2023/05/21 02:50:30;;;;;;;;;20.50;20.50;;;;;17.90;57.00;100991.00;2078246;28;46076;-64
2023/05/21 02:51:30;;;;;;;;;20.00;19.25;;;;;17.90;56.97;100992.81;2077807;28;45460;-64
2023/05/21 02:52:31;;;;;;;;;20.75;20.75;;;;;17.89;56.94;100993.75;2074861;28;45849;-61
2023/05/21 02:53:31;;;;;;;;;19.25;18.75;;;;;17.88;57.17;100998.25;2080182;28;45632;-62
2023/05/21 02:54:31;;;;;;;;;23.75;22.00;;;;;17.87;57.07;100995.66;2079534;28;45740;-61
2023/05/21 02:55:32;;;;;;;;;22.25;22.25;;;;;17.87;57.15;100998.34;2080080;28;46360;-63
2023/05/21 02:56:32;;;;;;;;;18.75;17.75;;;;;17.85;57.53;100993.03;2078816;28;45600;-63
2023/05/21 02:57:32;;;;;;;;;20.50;20.25;;;;;17.85;57.18;100994.88;2078680;28;46339;-64
2023/05/21 02:58:33;;;;;;;;;18.00;18.00;;;;;17.84;56.94;100998.50;2080223;28;44999;-65
2023/05/21 02:59:33;;;;;;;;;19.25;17.75;;;;;17.82;57.18;100990.50;2079423;28;46352;-62
2023/05/21 03:00:33;;;;;;;;;22.75;20.50;;;;;17.81;57.02;100994.16;2079239;28;45494;-63
2023/05/21 03:01:34;;;;;;;;;20.75;20.75;;;;;17.80;57.34;100995.09;2080317;28;46746;-63
2023/05/21 03:02:34;;;;;;;;;21.75;21.75;;;;;17.81;57.28;100996.81;2079659;28;45455;-63
2023/05/21 03:03:35;;;;;;;;;23.25;23.25;;;;;17.80;57.43;100995.09;2079775;28;45686;-65
2023/05/21 03:04:44;;;;;;;;;19.75;19.25;;;;;17.80;57.29;100995.09;2079226;28;48413;-64
2023/05/21 03:05:45;;;;;;;;;24.40;21.40;;;;;17.80;57.61;100988.84;2079973;28;46196;-63
2023/05/21 03:06:45;;;;;;;;;22.75;20.25;;;;;17.80;57.51;100992.41;2080133;28;46477;-63
2023/05/21 03:07:45;;;;;;;;;21.00;21.00;;;;;17.80;57.41;100997.78;2080323;28;45532;-64
2023/05/21 03:08:46;;;;;;;;;23.50;22.25;;;;;17.80;57.31;100991.53;2078579;28;46295;-64
2023/05/21 03:09:46;;;;;;;;;23.50;21.75;;;;;17.80;57.15;100994.22;2071605;28;49128;-62
2023/05/21 03:10:47;;;;;;;;;20.00;17.75;;;;;17.79;57.35;100990.66;2071961;28;45234;-64
2023/05/21 03:11:48;;;;;;;;;15.20;13.40;;;;;17.79;57.10;100998.72;2064262;28;46409;-63
2023/05/21 03:12:49;;;;;;;;;20.60;18.60;;;;;17.79;57.51;100993.34;2080012;28;46422;-63
2023/05/21 03:13:50;;;;;;;;;19.75;19.25;;;;;17.80;57.39;100996.91;2069976;28;46568;-62
2023/05/21 03:14:50;;;;;;;;;21.50;21.25;;;;;17.80;57.45;100992.41;2059566;28;45919;-64
2023/05/21 03:15:54;;;;;;;;;22.50;20.25;;;;;17.81;57.40;100998.66;2068311;28;46082;-64
2023/05/21 03:16:55;;;;;;;;;22.20;21.00;;;;;17.81;57.73;100996.81;2071419;28;45620;-64
2023/05/21 03:17:55;;;;;;;;;21.75;20.00;;;;;17.79;57.46;100993.34;2071887;28;46634;-66
2023/05/21 03:18:56;;;;;;;;;22.00;21.50;;;;;17.79;57.31;100996.03;2072104;28;45985;-63
2023/05/21 03:19:56;;;;;;;;;23.00;20.00;;;;;17.78;57.47;100991.59;2071183;28;47133;-65
2023/05/21 03:20:57;;;;;;;;;20.75;19.75;;;;;17.79;57.27;100995.16;2073300;28;45972;-61
2023/05/21 03:21:58;;;;;;;;;18.40;18.40;;;;;17.80;57.38;100989.72;2073978;28;47139;-62
2023/05/21 03:22:59;;;;;;;;;22.00;22.00;;;;;17.80;57.53;100999.59;2071740;28;46207;-62
2023/05/21 03:24:00;;;;;;;;;19.60;18.00;;;;;17.80;57.34;101002.28;2071792;28;45774;-64
2023/05/21 03:25:01;;;;;;;;;24.00;23.40;;;;;17.81;57.28;101001.31;2071244;28;46444;-64
2023/05/21 03:26:01;;;;;;;;;20.50;19.00;;;;;17.80;57.60;101000.47;2071654;28;44991;-64
2023/05/21 03:27:02;;;;;;;;;19.75;19.75;;;;;17.80;57.65;101004.97;2065252;28;44957;-62
2023/05/21 03:28:02;;;;;;;;;23.25;23.00;;;;;17.80;57.74;101007.66;2071658;28;45933;-64
2023/05/21 03:29:02;;;;;;;;;23.25;21.50;;;;;17.80;57.59;101010.34;2073495;28;46583;-65
2023/05/21 03:30:04;;;;;;;;;22.25;22.25;;;;;17.80;57.33;101010.34;2074360;28;45993;-64
2023/05/21 03:31:04;;;;;;;;;26.00;23.00;;;;;17.79;57.58;101014.81;2072149;28;46300;-63
2023/05/21 03:32:05;;;;;;;;;22.00;21.50;;;;;17.80;57.63;101007.66;2071760;28;45446;-63
2023/05/21 03:33:05;;;;;;;;;20.75;18.50;;;;;17.79;57.77;101006.78;2073171;28;46071;-65
2023/05/21 03:34:07;;;;;;;;;22.00;19.75;;;;;17.78;57.55;101006.81;2072182;28;46750;-65
2023/05/21 03:35:07;;;;;;;;;24.20;22.60;;;;;17.77;57.59;101005.94;2071517;28;46277;-64
2023/05/21 03:36:08;;;;;;;;;19.75;19.75;;;;;17.77;57.71;101008.63;2070771;28;46363;-65
2023/05/21 03:37:08;;;;;;;;;24.25;22.75;;;;;17.76;57.64;101011.38;2071799;28;45782;-64
2023/05/21 03:38:08;;;;;;;;;25.75;22.00;;;;;17.77;57.48;101007.75;2071467;28;45625;-62
2023/05/21 03:39:09;;;;;;;;;26.50;22.25;;;;;17.77;57.77;101005.94;2071483;28;45651;-65
2023/05/21 03:40:10;;;;;;;;;21.25;17.50;;;;;17.77;57.61;101005.06;2073744;28;45402;-64
2023/05/21 03:41:11;;;;;;;;;23.00;22.40;;;;;17.77;57.80;101003.25;2073502;28;47144;-64
2023/05/21 03:42:12;;;;;;;;;21.80;21.80;;;;;17.78;57.63;101006.81;2071737;28;46571;-63
2023/05/21 03:43:13;;;;;;;;;25.40;24.60;;;;;17.77;57.81;100995.22;2058176;28;45369;-65
2023/05/21 03:44:13;;;;;;;;;20.75;20.75;;;;;17.77;57.81;101007.75;2063432;28;46311;-64
2023/05/21 03:45:13;;;;;;;;;24.00;21.00;;;;;17.77;57.77;100999.72;2073755;28;46448;-66
2023/05/21 03:46:14;;;;;;;;;24.75;24.00;;;;;17.77;57.72;101000.56;2074438;28;45784;-64
2023/05/21 03:47:14;;;;;;;;;24.75;21.75;;;;;17.78;57.86;101001.44;2071454;28;45498;-65
2023/05/21 03:48:15;;;;;;;;;25.00;24.00;;;;;17.78;57.80;101006.81;2073050;28;46969;-64
2023/05/21 03:49:15;;;;;;;;;24.00;24.00;;;;;17.78;57.70;101012.19;2073612;28;46216;-62
2023/05/21 03:50:15;;;;;;;;;21.75;21.75;;;;;17.78;57.75;101005.00;2071883;28;46406;-65
2023/05/21 03:51:16;;;;;;;;;26.00;25.25;;;;;17.79;57.52;101012.16;2071467;28;46243;-63
2023/05/21 03:52:17;;;;;;;;;24.20;23.20;;;;;17.80;57.62;101004.97;2071236;28;46201;-63
2023/05/21 03:53:17;;;;;;;;;19.75;19.50;;;;;17.79;57.58;101006.78;2072406;28;45277;-64
2023/05/21 03:54:17;;;;;;;;;22.75;22.75;;;;;17.79;57.73;101013.97;2075858;28;45255;-63
2023/05/21 03:55:18;;;;;;;;;27.50;24.50;;;;;17.78;57.75;101005.00;2078723;28;46313;-61
2023/05/21 03:56:18;;;;;;;;;21.00;21.00;;;;;17.79;57.70;101014.81;2079998;28;45596;-64
2023/05/21 03:57:18;;;;;;;;;22.25;21.25;;;;;17.79;57.59;101008.59;2077491;28;45070;-63
2023/05/21 03:58:22;;;;;;;;;25.00;22.00;;;;;17.79;57.59;101008.59;2080528;28;45603;-63
2023/05/21 03:59:22;;;;;;;;;24.00;24.00;;;;;17.78;57.78;101004.13;2078585;28;46366;-64
2023/05/21 04:00:22;;;;;;;;;24.25;22.50;;;;;17.77;57.67;101011.31;2077212;28;45462;-65
2023/05/21 04:01:23;;;;;;;;;22.50;22.00;;;;;17.78;57.95;101001.44;2080958;28;46207;-64
2023/05/21 04:02:26;;;;;;;;;25.50;23.75;;;;;17.79;57.86;101003.22;2068187;28;47644;-63
2023/05/21 04:03:26;;;;;;;;;25.00;24.00;;;;;17.79;57.70;101008.59;2062391;28;45041;-64
2023/05/21 04:04:28;;;;;;;;;28.50;24.25;;;;;17.80;57.73;101013.00;2079254;28;46281;-63
2023/05/21 04:05:28;;;;;;;;;27.80;22.60;;;;;17.80;57.91;101004.97;2077459;28;46146;-62
2023/05/21 04:06:29;;;;;;;;;23.25;23.25;;;;;17.79;57.61;101012.16;2070905;28;45139;-63
2023/05/21 04:07:29;;;;;;;;;24.50;24.50;;;;;17.80;57.60;101013.00;2062011;28;46299;-64
2023/05/21 04:08:30;;;;;;;;;22.75;22.75;;;;;17.77;57.67;101014.00;2068734;28;45566;-63
2023/05/21 04:09:30;;;;;;;;;20.25;19.75;;;;;17.76;57.88;101014.94;2080551;28;46423;-63
2023/05/21 04:10:30;;;;;;;;;24.75;24.00;;;;;17.76;58.33;101023.00;2072905;28;46355;-64
2023/05/21 04:11:31;;;;;;;;;22.75;22.75;;;;;17.75;57.65;101015.03;2069256;28;46350;-63
2023/05/21 04:12:31;;;;;;;;;27.75;25.75;;;;;17.74;57.78;101024.88;2086540;28;45019;-64
2023/05/21 04:13:31;;;;;;;;;23.25;23.00;;;;;17.74;57.79;101018.66;2084052;28;45699;-64
2023/05/21 04:14:32;;;;;;;;;24.25;24.25;;;;;17.73;57.90;101022.28;2079519;28;45824;-65
2023/05/21 04:15:34;;;;;;;;;23.60;22.60;;;;;17.72;57.89;101021.41;2077302;28;45992;-63
2023/05/21 04:16:37;;;;;;;;;24.00;22.60;;;;;17.72;57.93;101026.78;2077227;28;45718;-65
2023/05/21 04:17:38;;;;;;;;;25.40;25.00;;;;;17.72;57.89;101021.41;2080708;28;46049;-66
2023/05/21 04:18:40;;;;;;;;;26.40;23.40;;;;;17.73;57.71;101022.28;2076253;28;45741;-65
2023/05/21 04:19:40;;;;;;;;;24.00;22.20;;;;;17.72;57.99;101026.78;2079213;28;45709;-64
2023/05/21 04:20:41;;;;;;;;;23.50;23.50;;;;;17.72;57.73;101026.78;2080890;28;45181;-65
2023/05/21 04:21:43;;;;;;;;;24.25;22.25;;;;;17.74;57.90;101021.34;2081178;28;45567;-63
2023/05/21 04:22:44;;;;;;;;;30.40;26.80;;;;;17.74;57.83;101024.03;2080620;28;46106;-62
2023/05/21 04:23:44;;;;;;;;;25.25;25.00;;;;;17.74;57.94;101026.69;2077432;28;45667;-62
2023/05/21 04:24:45;;;;;;;;;26.25;26.25;;;;;17.74;57.74;101022.22;2077349;28;46325;-64
2023/05/21 04:25:49;;;;;;;;;25.25;24.00;;;;;17.74;57.89;101026.69;2073886;28;47078;-65
2023/05/21 04:26:49;;;;;;;;;25.60;25.60;;;;;17.74;57.94;101032.06;2076815;28;45704;-63
2023/05/21 04:27:50;;;;;;;;;26.25;25.25;;;;;17.72;57.92;101025.91;2080977;28;46207;-65
2023/05/21 04:28:52;;;;;;;;;26.25;25.00;;;;;17.72;57.88;101028.59;2079748;28;46180;-64
2023/05/21 04:29:53;;;;;;;;;28.00;24.20;;;;;17.72;57.89;101026.78;2078377;28;45755;-65
2023/05/21 04:30:55;;;;;;;;;29.00;23.50;;;;;17.73;57.87;101030.34;2081439;28;46543;-64
2023/05/21 04:31:55;;;;;;;;;26.60;22.40;;;;;17.73;57.88;101030.34;2078198;28;45881;-64
2023/05/21 04:32:56;;;;;;;;;26.00;26.00;;;;;17.73;57.83;101031.19;2078388;28;45313;-63
2023/05/21 04:33:58;;;;;;;;;22.60;21.80;;;;;17.73;58.05;101033.00;2080938;28;46607;-64
2023/05/21 04:34:59;;;;;;;;;24.40;24.00;;;;;17.74;57.86;101038.31;2073812;28;46106;-64
2023/05/21 04:36:00;;;;;;;;;25.80;25.40;;;;;17.73;58.07;101033.88;2073175;28;46130;-64
2023/05/21 04:37:01;;;;;;;;;16.00;16.00;;;;;17.73;57.78;101036.56;2079709;28;45748;-63
2023/05/21 04:38:01;;;;;;;;;23.00;23.00;;;;;17.72;57.84;101032.16;2073091;28;46617;-63
2023/05/21 04:39:01;;;;;;;;;25.75;25.50;;;;;17.73;57.88;101030.34;2073094;28;46258;-64